sensor_id;sensor_type;location;lat;lon;timestamp;P1;durP1;ratioP1;P2;durP2;ratioP2
48963;SDS011;34776;48.180;16.420;2024-03-02T00:00:38;33.03;;;17.48;;
48963;SDS011;34776;48.180;16.420;2024-03-02T00:03:04;36.83;;;18.67;;
48963;SDS011;34776;48.180;16.420;2024-03-02T00:05:32;33.63;;;20.23;;
48963;SDS011;34776;48.180;16.420;2024-03-02T00:07:57;33.38;;;20.17;;
48963;SDS011;34776;48.180;16.420;2024-03-02T00:10:41;41.60;;;19.83;;
48963;SDS011;34776;48.180;16.420;2024-03-02T00:13:07;27.58;;;15.73;;
48963;SDS011;34776;48.180;16.420;2024-03-02T00:18:01;29.95;;;17.25;;
48963;SDS011;34776;48.180;16.420;2024-03-02T00:20:27;43.63;;;21.50;;
48963;SDS011;34776;48.180;16.420;2024-03-02T00:23:12;32.17;;;17.90;;
48963;SDS011;34776;48.180;16.420;2024-03-02T00:25:44;26.08;;;16.08;;
48963;SDS011;34776;48.180;16.420;2024-03-02T00:28:19;31.63;;;19.35;;
48963;SDS011;34776;48.180;16.420;2024-03-02T00:33:22;80.10;;;41.55;;
48963;SDS011;34776;48.180;16.420;2024-03-02T00:35:49;80.63;;;40.38;;
48963;SDS011;34776;48.180;16.420;2024-03-02T00:38:15;93.30;;;44.28;;
48963;SDS011;34776;48.180;16.420;2024-03-02T00:40:44;73.78;;;37.95;;
48963;SDS011;34776;48.180;16.420;2024-03-02T00:43:12;129.00;;;64.70;;
48963;SDS011;34776;48.180;16.420;2024-03-02T00:46:07;110.40;;;57.58;;
48963;SDS011;34776;48.180;16.420;2024-03-02T00:48:33;86.75;;;44.40;;
48963;SDS011;34776;48.180;16.420;2024-03-02T00:51:01;57.05;;;31.48;;
48963;SDS011;34776;48.180;16.420;2024-03-02T00:53:30;70.78;;;39.17;;
48963;SDS011;34776;48.180;16.420;2024-03-02T00:55:57;49.63;;;27.48;;
48963;SDS011;34776;48.180;16.420;2024-03-02T00:58:24;50.97;;;27.05;;
48963;SDS011;34776;48.180;16.420;2024-03-02T01:00:49;42.08;;;24.48;;
48963;SDS011;34776;48.180;16.420;2024-03-02T01:03:15;44.95;;;23.38;;
48963;SDS011;34776;48.180;16.420;2024-03-02T01:05:43;36.70;;;22.65;;
48963;SDS011;34776;48.180;16.420;2024-03-02T01:08:09;33.15;;;19.67;;
48963;SDS011;34776;48.180;16.420;2024-03-02T01:10:36;34.05;;;20.42;;
48963;SDS011;34776;48.180;16.420;2024-03-02T01:13:02;34.72;;;19.92;;
48963;SDS011;34776;48.180;16.420;2024-03-02T01:15:27;27.85;;;17.52;;
48963;SDS011;34776;48.180;16.420;2024-03-02T01:17:53;30.20;;;17.58;;
48963;SDS011;34776;48.180;16.420;2024-03-02T01:20:18;28.80;;;16.65;;
48963;SDS011;34776;48.180;16.420;2024-03-02T01:22:43;30.25;;;17.48;;
48963;SDS011;34776;48.180;16.420;2024-03-02T01:25:09;37.10;;;21.08;;
48963;SDS011;34776;48.180;16.420;2024-03-02T01:27:34;31.63;;;19.13;;
48963;SDS011;34776;48.180;16.420;2024-03-02T01:29:59;42.90;;;20.17;;
48963;SDS011;34776;48.180;16.420;2024-03-02T01:32:25;43.70;;;24.90;;
48963;SDS011;34776;48.180;16.420;2024-03-02T01:34:50;38.70;;;21.38;;
48963;SDS011;34776;48.180;16.420;2024-03-02T01:37:16;40.25;;;23.30;;
48963;SDS011;34776;48.180;16.420;2024-03-02T01:39:43;36.75;;;21.10;;
48963;SDS011;34776;48.180;16.420;2024-03-02T01:42:08;28.95;;;17.02;;
48963;SDS011;34776;48.180;16.420;2024-03-02T01:44:35;29.65;;;17.42;;
48963;SDS011;34776;48.180;16.420;2024-03-02T01:47:01;43.22;;;24.00;;
48963;SDS011;34776;48.180;16.420;2024-03-02T01:49:27;33.78;;;20.27;;
48963;SDS011;34776;48.180;16.420;2024-03-02T01:51:52;30.70;;;18.25;;
48963;SDS011;34776;48.180;16.420;2024-03-02T01:54:17;37.25;;;21.42;;
48963;SDS011;34776;48.180;16.420;2024-03-02T01:56:43;37.08;;;20.40;;
48963;SDS011;34776;48.180;16.420;2024-03-02T01:59:09;29.85;;;17.35;;
48963;SDS011;34776;48.180;16.420;2024-03-02T02:01:34;28.05;;;16.52;;
48963;SDS011;34776;48.180;16.420;2024-03-02T02:04:00;33.08;;;19.35;;
48963;SDS011;34776;48.180;16.420;2024-03-02T02:06:25;27.17;;;17.23;;
48963;SDS011;34776;48.180;16.420;2024-03-02T02:08:51;30.65;;;16.25;;
48963;SDS011;34776;48.180;16.420;2024-03-02T02:11:16;31.70;;;17.50;;
48963;SDS011;34776;48.180;16.420;2024-03-02T02:13:42;38.00;;;21.20;;
48963;SDS011;34776;48.180;16.420;2024-03-02T02:16:08;29.15;;;17.85;;
48963;SDS011;34776;48.180;16.420;2024-03-02T02:18:35;42.58;;;19.95;;
48963;SDS011;34776;48.180;16.420;2024-03-02T02:21:01;30.00;;;17.10;;
48963;SDS011;34776;48.180;16.420;2024-03-02T02:23:26;29.80;;;17.00;;
48963;SDS011;34776;48.180;16.420;2024-03-02T02:25:52;28.67;;;16.05;;
48963;SDS011;34776;48.180;16.420;2024-03-02T02:28:17;30.52;;;17.00;;
48963;SDS011;34776;48.180;16.420;2024-03-02T02:30:43;34.97;;;19.25;;
48963;SDS011;34776;48.180;16.420;2024-03-02T02:33:08;32.03;;;18.15;;
48963;SDS011;34776;48.180;16.420;2024-03-02T02:35:34;33.22;;;17.60;;
48963;SDS011;34776;48.180;16.420;2024-03-02T02:38:01;71.90;;;31.13;;
48963;SDS011;34776;48.180;16.420;2024-03-02T02:40:27;60.63;;;28.13;;
48963;SDS011;34776;48.180;16.420;2024-03-02T02:42:56;47.40;;;25.35;;
48963;SDS011;34776;48.180;16.420;2024-03-02T02:45:26;35.67;;;18.80;;
48963;SDS011;34776;48.180;16.420;2024-03-02T02:47:51;41.80;;;21.75;;
48963;SDS011;34776;48.180;16.420;2024-03-02T02:50:17;43.28;;;23.45;;
48963;SDS011;34776;48.180;16.420;2024-03-02T02:52:43;37.22;;;17.85;;
48963;SDS011;34776;48.180;16.420;2024-03-02T02:55:10;26.65;;;13.95;;
48963;SDS011;34776;48.180;16.420;2024-03-02T02:57:39;32.35;;;16.65;;
48963;SDS011;34776;48.180;16.420;2024-03-02T03:02:39;37.03;;;18.25;;
48963;SDS011;34776;48.180;16.420;2024-03-02T03:05:06;27.08;;;15.80;;
48963;SDS011;34776;48.180;16.420;2024-03-02T03:07:33;27.17;;;14.75;;
48963;SDS011;34776;48.180;16.420;2024-03-02T03:10:00;30.40;;;16.25;;
48963;SDS011;34776;48.180;16.420;2024-03-02T03:12:26;28.63;;;14.35;;
48963;SDS011;34776;48.180;16.420;2024-03-02T03:14:51;30.20;;;17.33;;
48963;SDS011;34776;48.180;16.420;2024-03-02T03:17:16;33.65;;;17.90;;
48963;SDS011;34776;48.180;16.420;2024-03-02T03:19:42;29.63;;;17.48;;
48963;SDS011;34776;48.180;16.420;2024-03-02T03:22:07;41.25;;;23.83;;
48963;SDS011;34776;48.180;16.420;2024-03-02T03:24:33;29.15;;;17.25;;
48963;SDS011;34776;48.180;16.420;2024-03-02T03:26:58;30.02;;;17.77;;
48963;SDS011;34776;48.180;16.420;2024-03-02T03:29:25;39.78;;;20.80;;
48963;SDS011;34776;48.180;16.420;2024-03-02T03:31:50;45.00;;;24.52;;
48963;SDS011;34776;48.180;16.420;2024-03-02T03:34:15;28.88;;;17.15;;
48963;SDS011;34776;48.180;16.420;2024-03-02T03:36:41;39.47;;;20.08;;
48963;SDS011;34776;48.180;16.420;2024-03-02T03:39:07;39.50;;;20.08;;
48963;SDS011;34776;48.180;16.420;2024-03-02T03:41:32;29.08;;;15.25;;
48963;SDS011;34776;48.180;16.420;2024-03-02T03:43:58;36.15;;;18.33;;
48963;SDS011;34776;48.180;16.420;2024-03-02T03:46:23;43.47;;;19.35;;
48963;SDS011;34776;48.180;16.420;2024-03-02T03:48:50;31.88;;;18.08;;
48963;SDS011;34776;48.180;16.420;2024-03-02T03:51:15;102.57;;;17.92;;
48963;SDS011;34776;48.180;16.420;2024-03-02T03:53:41;56.88;;;19.63;;
48963;SDS011;34776;48.180;16.420;2024-03-02T03:56:06;27.98;;;14.73;;
48963;SDS011;34776;48.180;16.420;2024-03-02T03:58:31;31.40;;;16.00;;
48963;SDS011;34776;48.180;16.420;2024-03-02T04:00:57;43.95;;;21.95;;
48963;SDS011;34776;48.180;16.420;2024-03-02T04:03:22;41.83;;;21.80;;
48963;SDS011;34776;48.180;16.420;2024-03-02T04:05:48;44.50;;;15.23;;
48963;SDS011;34776;48.180;16.420;2024-03-02T04:08:13;23.52;;;12.75;;
48963;SDS011;34776;48.180;16.420;2024-03-02T04:10:39;34.75;;;16.38;;
48963;SDS011;34776;48.180;16.420;2024-03-02T04:13:05;34.90;;;17.77;;
48963;SDS011;34776;48.180;16.420;2024-03-02T04:15:30;33.88;;;15.40;;
48963;SDS011;34776;48.180;16.420;2024-03-02T04:17:57;32.35;;;16.17;;
48963;SDS011;34776;48.180;16.420;2024-03-02T04:20:22;31.83;;;18.00;;
48963;SDS011;34776;48.180;16.420;2024-03-02T04:22:47;22.55;;;12.55;;
48963;SDS011;34776;48.180;16.420;2024-03-02T04:25:13;29.10;;;14.00;;
48963;SDS011;34776;48.180;16.420;2024-03-02T04:27:38;31.63;;;17.73;;
48963;SDS011;34776;48.180;16.420;2024-03-02T04:30:06;41.15;;;18.27;;
48963;SDS011;34776;48.180;16.420;2024-03-02T04:32:32;28.52;;;15.75;;
48963;SDS011;34776;48.180;16.420;2024-03-02T04:34:57;37.38;;;18.00;;
48963;SDS011;34776;48.180;16.420;2024-03-02T04:37:22;58.20;;;19.08;;
48963;SDS011;34776;48.180;16.420;2024-03-02T04:39:49;33.45;;;15.95;;
48963;SDS011;34776;48.180;16.420;2024-03-02T04:42:14;185.43;;;21.25;;
48963;SDS011;34776;48.180;16.420;2024-03-02T04:44:39;157.00;;;19.00;;
48963;SDS011;34776;48.180;16.420;2024-03-02T04:47:05;140.15;;;19.17;;
48963;SDS011;34776;48.180;16.420;2024-03-02T04:49:30;48.50;;;17.33;;
48963;SDS011;34776;48.180;16.420;2024-03-02T04:51:56;85.70;;;18.15;;
48963;SDS011;34776;48.180;16.420;2024-03-02T04:54:24;189.23;;;18.00;;
48963;SDS011;34776;48.180;16.420;2024-03-02T04:56:49;122.30;;;16.38;;
48963;SDS011;34776;48.180;16.420;2024-03-02T04:59:15;43.28;;;13.90;;
48963;SDS011;34776;48.180;16.420;2024-03-02T05:01:45;129.50;;;17.55;;
48963;SDS011;34776;48.180;16.420;2024-03-02T05:04:11;59.63;;;14.48;;
48963;SDS011;34776;48.180;16.420;2024-03-02T05:06:41;56.38;;;14.63;;
48963;SDS011;34776;48.180;16.420;2024-03-02T05:09:07;38.10;;;14.57;;
48963;SDS011;34776;48.180;16.420;2024-03-02T05:11:33;25.95;;;13.38;;
48963;SDS011;34776;48.180;16.420;2024-03-02T05:14:02;51.53;;;15.02;;
48963;SDS011;34776;48.180;16.420;2024-03-02T05:16:34;24.83;;;12.05;;
48963;SDS011;34776;48.180;16.420;2024-03-02T05:19:01;29.45;;;11.80;;
48963;SDS011;34776;48.180;16.420;2024-03-02T05:21:27;28.73;;;11.98;;
48963;SDS011;34776;48.180;16.420;2024-03-02T05:23:52;45.75;;;12.88;;
48963;SDS011;34776;48.180;16.420;2024-03-02T05:26:17;78.95;;;14.80;;
48963;SDS011;34776;48.180;16.420;2024-03-02T05:28:43;100.18;;;16.05;;
48963;SDS011;34776;48.180;16.420;2024-03-02T05:31:11;167.50;;;17.13;;
48963;SDS011;34776;48.180;16.420;2024-03-02T05:33:40;55.92;;;14.85;;
48963;SDS011;34776;48.180;16.420;2024-03-02T05:36:07;112.60;;;17.63;;
48963;SDS011;34776;48.180;16.420;2024-03-02T05:38:36;26.63;;;15.55;;
48963;SDS011;34776;48.180;16.420;2024-03-02T05:41:01;101.68;;;16.38;;
48963;SDS011;34776;48.180;16.420;2024-03-02T05:43:27;58.75;;;16.38;;
48963;SDS011;34776;48.180;16.420;2024-03-02T05:45:53;175.73;;;20.27;;
48963;SDS011;34776;48.180;16.420;2024-03-02T05:48:19;144.63;;;17.95;;
48963;SDS011;34776;48.180;16.420;2024-03-02T05:50:44;268.48;;;20.08;;
48963;SDS011;34776;48.180;16.420;2024-03-02T05:53:10;165.70;;;16.80;;
48963;SDS011;34776;48.180;16.420;2024-03-02T05:55:35;328.98;;;22.50;;
48963;SDS011;34776;48.180;16.420;2024-03-02T05:58:01;100.90;;;19.27;;
48963;SDS011;34776;48.180;16.420;2024-03-02T06:00:42;156.05;;;21.25;;
48963;SDS011;34776;48.180;16.420;2024-03-02T06:03:07;53.53;;;17.13;;
48963;SDS011;34776;48.180;16.420;2024-03-02T06:05:34;53.95;;;16.30;;
48963;SDS011;34776;48.180;16.420;2024-03-02T06:08:00;50.30;;;18.48;;
48963;SDS011;34776;48.180;16.420;2024-03-02T06:10:25;76.30;;;19.23;;
48963;SDS011;34776;48.180;16.420;2024-03-02T06:12:51;59.60;;;20.27;;
48963;SDS011;34776;48.180;16.420;2024-03-02T06:15:17;54.22;;;20.52;;
48963;SDS011;34776;48.180;16.420;2024-03-02T06:17:42;59.50;;;19.50;;
48963;SDS011;34776;48.180;16.420;2024-03-02T06:20:09;38.80;;;18.92;;
48963;SDS011;34776;48.180;16.420;2024-03-02T06:22:34;34.05;;;17.05;;
48963;SDS011;34776;48.180;16.420;2024-03-02T06:25:00;54.10;;;19.33;;
48963;SDS011;34776;48.180;16.420;2024-03-02T06:27:25;78.00;;;19.50;;
48963;SDS011;34776;48.180;16.420;2024-03-02T06:29:50;40.85;;;17.70;;
48963;SDS011;34776;48.180;16.420;2024-03-02T06:32:16;53.20;;;18.45;;
48963;SDS011;34776;48.180;16.420;2024-03-02T06:34:41;45.53;;;18.55;;
48963;SDS011;34776;48.180;16.420;2024-03-02T06:37:07;62.17;;;20.55;;
48963;SDS011;34776;48.180;16.420;2024-03-02T06:39:32;52.90;;;19.77;;
48963;SDS011;34776;48.180;16.420;2024-03-02T06:41:59;43.53;;;19.20;;
48963;SDS011;34776;48.180;16.420;2024-03-02T06:44:25;90.03;;;20.63;;
48963;SDS011;34776;48.180;16.420;2024-03-02T06:46:50;89.68;;;22.70;;
48963;SDS011;34776;48.180;16.420;2024-03-02T06:49:15;47.92;;;21.83;;
48963;SDS011;34776;48.180;16.420;2024-03-02T06:51:42;44.35;;;20.02;;
48963;SDS011;34776;48.180;16.420;2024-03-02T06:54:08;61.53;;;18.80;;
48963;SDS011;34776;48.180;16.420;2024-03-02T06:56:35;193.70;;;23.45;;
48963;SDS011;34776;48.180;16.420;2024-03-02T06:59:03;108.80;;;21.80;;
48963;SDS011;34776;48.180;16.420;2024-03-02T07:01:28;28.90;;;17.77;;
48963;SDS011;34776;48.180;16.420;2024-03-02T07:03:54;61.55;;;22.25;;
48963;SDS011;34776;48.180;16.420;2024-03-02T07:06:19;26.77;;;15.75;;
48963;SDS011;34776;48.180;16.420;2024-03-02T07:08:46;35.65;;;19.65;;
48963;SDS011;34776;48.180;16.420;2024-03-02T07:11:11;63.00;;;20.15;;
48963;SDS011;34776;48.180;16.420;2024-03-02T07:13:37;56.20;;;20.10;;
48963;SDS011;34776;48.180;16.420;2024-03-02T07:16:03;45.60;;;19.05;;
48963;SDS011;34776;48.180;16.420;2024-03-02T07:18:32;145.18;;;22.30;;
48963;SDS011;34776;48.180;16.420;2024-03-02T07:21:09;96.78;;;19.25;;
48963;SDS011;34776;48.180;16.420;2024-03-02T07:23:35;99.15;;;20.77;;
48963;SDS011;34776;48.180;16.420;2024-03-02T07:26:01;67.55;;;19.05;;
48963;SDS011;34776;48.180;16.420;2024-03-02T07:28:26;148.32;;;21.30;;
48963;SDS011;34776;48.180;16.420;2024-03-02T07:30:59;37.55;;;18.15;;
48963;SDS011;34776;48.180;16.420;2024-03-02T07:33:29;69.38;;;19.73;;
48963;SDS011;34776;48.180;16.420;2024-03-02T07:35:55;97.47;;;20.40;;
48963;SDS011;34776;48.180;16.420;2024-03-02T07:38:21;222.45;;;23.60;;
48963;SDS011;34776;48.180;16.420;2024-03-02T07:40:47;123.68;;;20.65;;
48963;SDS011;34776;48.180;16.420;2024-03-02T07:43:15;108.43;;;19.92;;
48963;SDS011;34776;48.180;16.420;2024-03-02T07:45:43;157.82;;;19.77;;
48963;SDS011;34776;48.180;16.420;2024-03-02T07:48:08;357.17;;;24.83;;
48963;SDS011;34776;48.180;16.420;2024-03-02T07:50:33;77.03;;;17.40;;
48963;SDS011;34776;48.180;16.420;2024-03-02T07:53:03;151.38;;;19.35;;
48963;SDS011;34776;48.180;16.420;2024-03-02T07:55:29;42.83;;;20.10;;
48963;SDS011;34776;48.180;16.420;2024-03-02T07:57:55;89.63;;;20.25;;
48963;SDS011;34776;48.180;16.420;2024-03-02T08:00:22;107.38;;;18.13;;
48963;SDS011;34776;48.180;16.420;2024-03-02T08:02:48;28.23;;;16.60;;
48963;SDS011;34776;48.180;16.420;2024-03-02T08:05:15;59.85;;;18.15;;
48963;SDS011;34776;48.180;16.420;2024-03-02T08:07:41;24.08;;;16.02;;
48963;SDS011;34776;48.180;16.420;2024-03-02T08:10:10;33.45;;;18.00;;
48963;SDS011;34776;48.180;16.420;2024-03-02T08:12:35;21.52;;;13.38;;
48963;SDS011;34776;48.180;16.420;2024-03-02T08:15:00;27.52;;;16.70;;
48963;SDS011;34776;48.180;16.420;2024-03-02T08:17:40;26.98;;;15.13;;
48963;SDS011;34776;48.180;16.420;2024-03-02T08:20:14;31.30;;;16.95;;
48963;SDS011;34776;48.180;16.420;2024-03-02T08:22:40;29.75;;;17.27;;
48963;SDS011;34776;48.180;16.420;2024-03-02T08:25:07;27.42;;;17.00;;
48963;SDS011;34776;48.180;16.420;2024-03-02T08:27:34;35.83;;;17.67;;
48963;SDS011;34776;48.180;16.420;2024-03-02T08:29:59;26.20;;;16.85;;
48963;SDS011;34776;48.180;16.420;2024-03-02T08:32:28;27.80;;;16.13;;
48963;SDS011;34776;48.180;16.420;2024-03-02T08:34:54;29.48;;;15.20;;
48963;SDS011;34776;48.180;16.420;2024-03-02T08:37:19;23.92;;;13.80;;
48963;SDS011;34776;48.180;16.420;2024-03-02T08:39:46;23.27;;;14.07;;
48963;SDS011;34776;48.180;16.420;2024-03-02T08:42:11;23.63;;;13.98;;
48963;SDS011;34776;48.180;16.420;2024-03-02T08:44:37;23.45;;;15.40;;
48963;SDS011;34776;48.180;16.420;2024-03-02T08:47:02;27.23;;;16.58;;
48963;SDS011;34776;48.180;16.420;2024-03-02T08:49:29;21.63;;;14.60;;
48963;SDS011;34776;48.180;16.420;2024-03-02T08:51:55;21.85;;;15.52;;
48963;SDS011;34776;48.180;16.420;2024-03-02T08:54:21;26.42;;;23.08;;
48963;SDS011;34776;48.180;16.420;2024-03-02T08:56:47;20.52;;;13.75;;
48963;SDS011;34776;48.180;16.420;2024-03-02T08:59:13;24.55;;;16.52;;
48963;SDS011;34776;48.180;16.420;2024-03-02T09:01:39;25.55;;;15.80;;
48963;SDS011;34776;48.180;16.420;2024-03-02T09:04:06;24.80;;;21.75;;
48963;SDS011;34776;48.180;16.420;2024-03-02T09:06:35;21.90;;;13.65;;
48963;SDS011;34776;48.180;16.420;2024-03-02T09:09:01;26.30;;;23.50;;
48963;SDS011;34776;48.180;16.420;2024-03-02T09:11:26;23.35;;;14.77;;
48963;SDS011;34776;48.180;16.420;2024-03-02T09:13:52;27.58;;;24.77;;
48963;SDS011;34776;48.180;16.420;2024-03-02T09:16:18;29.60;;;18.88;;
48963;SDS011;34776;48.180;16.420;2024-03-02T09:18:43;32.00;;;19.10;;
48963;SDS011;34776;48.180;16.420;2024-03-02T09:21:08;33.75;;;30.13;;
48963;SDS011;34776;48.180;16.420;2024-03-02T09:23:34;32.08;;;28.70;;
48963;SDS011;34776;48.180;16.420;2024-03-02T09:25:59;30.92;;;27.60;;
48963;SDS011;34776;48.180;16.420;2024-03-02T09:28:25;27.70;;;17.70;;
48963;SDS011;34776;48.180;16.420;2024-03-02T09:30:50;36.33;;;31.08;;
48963;SDS011;34776;48.180;16.420;2024-03-02T09:33:15;31.95;;;28.40;;
48963;SDS011;34776;48.180;16.420;2024-03-02T09:35:41;33.83;;;30.17;;
48963;SDS011;34776;48.180;16.420;2024-03-02T09:38:07;33.38;;;29.80;;
48963;SDS011;34776;48.180;16.420;2024-03-02T09:40:32;34.10;;;30.45;;
48963;SDS011;34776;48.180;16.420;2024-03-02T09:42:58;34.70;;;30.90;;
48963;SDS011;34776;48.180;16.420;2024-03-02T09:45:24;35.35;;;30.25;;
48963;SDS011;34776;48.180;16.420;2024-03-02T09:47:50;34.95;;;29.70;;
48963;SDS011;34776;48.180;16.420;2024-03-02T09:50:15;34.28;;;30.13;;
48963;SDS011;34776;48.180;16.420;2024-03-02T09:52:44;39.92;;;35.00;;
48963;SDS011;34776;48.180;16.420;2024-03-02T09:57:44;33.85;;;29.10;;
48963;SDS011;34776;48.180;16.420;2024-03-02T10:00:10;34.60;;;30.88;;
48963;SDS011;34776;48.180;16.420;2024-03-02T10:02:39;39.40;;;33.63;;
48963;SDS011;34776;48.180;16.420;2024-03-02T10:05:09;40.47;;;34.33;;
48963;SDS011;34776;48.180;16.420;2024-03-02T10:07:36;39.80;;;33.00;;
48963;SDS011;34776;48.180;16.420;2024-03-02T10:10:14;36.10;;;32.35;;
48963;SDS011;34776;48.180;16.420;2024-03-02T10:12:40;35.33;;;31.17;;
48963;SDS011;34776;48.180;16.420;2024-03-02T10:15:07;34.28;;;30.67;;
48963;SDS011;34776;48.180;16.420;2024-03-02T10:17:34;35.00;;;31.15;;
48963;SDS011;34776;48.180;16.420;2024-03-02T10:20:11;33.78;;;30.27;;
48963;SDS011;34776;48.180;16.420;2024-03-02T10:22:54;35.67;;;31.88;;
48963;SDS011;34776;48.180;16.420;2024-03-02T10:25:34;34.75;;;31.13;;
48963;SDS011;34776;48.180;16.420;2024-03-02T10:28:00;36.85;;;29.83;;
48963;SDS011;34776;48.180;16.420;2024-03-02T10:30:29;34.80;;;30.85;;
48963;SDS011;34776;48.180;16.420;2024-03-02T10:32:55;33.08;;;29.65;;
48963;SDS011;34776;48.180;16.420;2024-03-02T10:35:21;40.05;;;35.30;;
48963;SDS011;34776;48.180;16.420;2024-03-02T10:37:48;38.63;;;34.10;;
48963;SDS011;34776;48.180;16.420;2024-03-02T10:40:14;36.05;;;31.98;;
48963;SDS011;34776;48.180;16.420;2024-03-02T10:42:40;35.70;;;31.70;;
48963;SDS011;34776;48.180;16.420;2024-03-02T10:45:07;33.47;;;29.92;;
48963;SDS011;34776;48.180;16.420;2024-03-02T10:47:35;33.83;;;30.23;;
48963;SDS011;34776;48.180;16.420;2024-03-02T10:50:01;34.92;;;29.55;;
48963;SDS011;34776;48.180;16.420;2024-03-02T10:52:31;32.42;;;29.13;;
48963;SDS011;34776;48.180;16.420;2024-03-02T10:54:56;29.73;;;26.60;;
48963;SDS011;34776;48.180;16.420;2024-03-02T10:57:22;34.58;;;30.30;;
48963;SDS011;34776;48.180;16.420;2024-03-02T10:59:52;34.25;;;29.17;;
48963;SDS011;34776;48.180;16.420;2024-03-02T11:02:21;34.25;;;30.63;;
48963;SDS011;34776;48.180;16.420;2024-03-02T11:04:48;31.55;;;28.20;;
48963;SDS011;34776;48.180;16.420;2024-03-02T11:07:15;32.00;;;28.15;;
48963;SDS011;34776;48.180;16.420;2024-03-02T11:10:16;34.03;;;30.45;;
48963;SDS011;34776;48.180;16.420;2024-03-02T11:12:55;35.75;;;30.70;;
48963;SDS011;34776;48.180;16.420;2024-03-02T11:15:25;37.58;;;32.75;;
48963;SDS011;34776;48.180;16.420;2024-03-02T11:17:52;39.47;;;33.83;;
48963;SDS011;34776;48.180;16.420;2024-03-02T11:20:18;44.47;;;34.30;;
48963;SDS011;34776;48.180;16.420;2024-03-02T11:22:45;39.78;;;34.58;;
48963;SDS011;34776;48.180;16.420;2024-03-02T11:25:27;37.33;;;32.38;;
48963;SDS011;34776;48.180;16.420;2024-03-02T11:32:59;47.83;;;38.78;;
48963;SDS011;34776;48.180;16.420;2024-03-02T11:35:26;42.92;;;38.25;;
48963;SDS011;34776;48.180;16.420;2024-03-02T11:37:53;45.88;;;39.25;;
48963;SDS011;34776;48.180;16.420;2024-03-02T11:40:22;48.45;;;40.33;;
48963;SDS011;34776;48.180;16.420;2024-03-02T11:42:50;42.60;;;37.67;;
48963;SDS011;34776;48.180;16.420;2024-03-02T11:45:16;44.72;;;38.17;;
48963;SDS011;34776;48.180;16.420;2024-03-02T11:47:46;46.22;;;41.10;;
48963;SDS011;34776;48.180;16.420;2024-03-02T11:50:15;39.42;;;35.03;;
48963;SDS011;34776;48.180;16.420;2024-03-02T11:52:41;46.08;;;35.92;;
48963;SDS011;34776;48.180;16.420;2024-03-02T11:55:07;40.95;;;34.67;;
48963;SDS011;34776;48.180;16.420;2024-03-02T11:57:34;36.92;;;33.03;;
48963;SDS011;34776;48.180;16.420;2024-03-02T12:00:00;37.30;;;33.30;;
48963;SDS011;34776;48.180;16.420;2024-03-02T12:02:29;42.50;;;36.78;;
48963;SDS011;34776;48.180;16.420;2024-03-02T12:04:55;45.65;;;37.30;;
48963;SDS011;34776;48.180;16.420;2024-03-02T12:07:22;55.17;;;47.10;;
48963;SDS011;34776;48.180;16.420;2024-03-02T12:09:48;44.58;;;39.67;;
48963;SDS011;34776;48.180;16.420;2024-03-02T12:12:24;43.63;;;38.67;;
48963;SDS011;34776;48.180;16.420;2024-03-02T12:14:50;42.53;;;37.55;;
48963;SDS011;34776;48.180;16.420;2024-03-02T12:17:17;41.72;;;35.58;;
48963;SDS011;34776;48.180;16.420;2024-03-02T12:19:44;37.20;;;32.75;;
48963;SDS011;34776;48.180;16.420;2024-03-02T12:22:09;39.95;;;35.13;;
48963;SDS011;34776;48.180;16.420;2024-03-02T12:24:34;42.35;;;36.33;;
48963;SDS011;34776;48.180;16.420;2024-03-02T12:27:00;38.22;;;32.80;;
48963;SDS011;34776;48.180;16.420;2024-03-02T12:29:26;34.75;;;30.65;;
48963;SDS011;34776;48.180;16.420;2024-03-02T12:31:52;38.95;;;34.78;;
48963;SDS011;34776;48.180;16.420;2024-03-02T12:34:18;42.92;;;38.30;;
48963;SDS011;34776;48.180;16.420;2024-03-02T12:36:45;36.33;;;32.45;;
48963;SDS011;34776;48.180;16.420;2024-03-02T12:39:13;38.53;;;34.33;;
48963;SDS011;34776;48.180;16.420;2024-03-02T12:41:41;33.53;;;29.92;;
48963;SDS011;34776;48.180;16.420;2024-03-02T12:44:07;35.30;;;30.40;;
48963;SDS011;34776;48.180;16.420;2024-03-02T12:46:34;34.92;;;31.20;;
48963;SDS011;34776;48.180;16.420;2024-03-02T12:49:08;35.45;;;31.33;;
48963;SDS011;34776;48.180;16.420;2024-03-02T12:51:39;31.20;;;27.88;;
48963;SDS011;34776;48.180;16.420;2024-03-02T12:54:08;32.50;;;29.00;;
48963;SDS011;34776;48.180;16.420;2024-03-02T12:56:35;33.15;;;29.63;;
48963;SDS011;34776;48.180;16.420;2024-03-02T12:59:02;32.63;;;28.17;;
48963;SDS011;34776;48.180;16.420;2024-03-02T13:01:27;36.22;;;30.30;;
48963;SDS011;34776;48.180;16.420;2024-03-02T13:03:53;36.58;;;32.58;;
48963;SDS011;34776;48.180;16.420;2024-03-02T13:06:22;37.75;;;32.88;;
48963;SDS011;34776;48.180;16.420;2024-03-02T13:08:49;32.97;;;29.38;;
48963;SDS011;34776;48.180;16.420;2024-03-02T13:11:16;35.10;;;29.90;;
48963;SDS011;34776;48.180;16.420;2024-03-02T13:13:45;33.25;;;29.70;;
48963;SDS011;34776;48.180;16.420;2024-03-02T13:16:11;34.90;;;29.42;;
48963;SDS011;34776;48.180;16.420;2024-03-02T13:18:38;30.63;;;27.35;;
48963;SDS011;34776;48.180;16.420;2024-03-02T13:21:05;35.72;;;21.83;;
48963;SDS011;34776;48.180;16.420;2024-03-02T13:23:30;31.17;;;27.42;;
48963;SDS011;34776;48.180;16.420;2024-03-02T13:25:59;35.35;;;29.15;;
48963;SDS011;34776;48.180;16.420;2024-03-02T13:28:24;32.72;;;27.55;;
48963;SDS011;34776;48.180;16.420;2024-03-02T13:30:51;27.20;;;24.30;;
48963;SDS011;34776;48.180;16.420;2024-03-02T13:33:17;31.20;;;27.95;;
48963;SDS011;34776;48.180;16.420;2024-03-02T13:35:47;55.38;;;44.38;;
48963;SDS011;34776;48.180;16.420;2024-03-02T13:38:16;47.53;;;39.50;;
48963;SDS011;34776;48.180;16.420;2024-03-02T13:40:45;37.88;;;33.03;;
48963;SDS011;34776;48.180;16.420;2024-03-02T13:43:15;30.77;;;27.30;;
48963;SDS011;34776;48.180;16.420;2024-03-02T13:45:40;31.23;;;25.75;;
48963;SDS011;34776;48.180;16.420;2024-03-02T13:48:06;33.28;;;28.13;;
48963;SDS011;34776;48.180;16.420;2024-03-02T13:50:32;31.15;;;26.50;;
48963;SDS011;34776;48.180;16.420;2024-03-02T13:52:57;33.83;;;30.20;;
48963;SDS011;34776;48.180;16.420;2024-03-02T13:55:23;35.03;;;29.70;;
48963;SDS011;34776;48.180;16.420;2024-03-02T13:57:48;35.20;;;29.10;;
48963;SDS011;34776;48.180;16.420;2024-03-02T14:00:15;34.40;;;30.55;;
48963;SDS011;34776;48.180;16.420;2024-03-02T14:02:42;36.47;;;31.30;;
48963;SDS011;34776;48.180;16.420;2024-03-02T14:05:08;36.60;;;31.95;;
48963;SDS011;34776;48.180;16.420;2024-03-02T14:07:38;35.38;;;29.25;;
48963;SDS011;34776;48.180;16.420;2024-03-02T14:10:04;32.22;;;28.50;;
48963;SDS011;34776;48.180;16.420;2024-03-02T14:12:30;32.72;;;29.33;;
48963;SDS011;34776;48.180;16.420;2024-03-02T14:14:55;30.40;;;27.20;;
48963;SDS011;34776;48.180;16.420;2024-03-02T14:17:23;30.63;;;26.60;;
48963;SDS011;34776;48.180;16.420;2024-03-02T14:19:50;38.58;;;34.40;;
48963;SDS011;34776;48.180;16.420;2024-03-02T14:22:16;36.22;;;32.03;;